createdAt,value
2023-07-08T00:00:54.685Z,80.85
2023-07-08T00:03:21.838Z,81.76
2023-07-08T00:05:54.284Z,81.20
2023-07-08T00:08:22.254Z,82.82
2023-07-08T00:10:49.330Z,82.28
2023-07-08T00:13:16.552Z,81.55
2023-07-08T00:15:43.672Z,82.00
2023-07-08T00:18:16.278Z,82.96
2023-07-08T00:20:48.926Z,84.26
2023-07-08T00:23:16.183Z,86.81
2023-07-08T00:25:44.074Z,88.24
2023-07-08T00:28:20.634Z,87.96
2023-07-08T00:30:49.403Z,87.34
2023-07-08T00:33:18.052Z,87.09
2023-07-08T00:35:46.597Z,87.54
2023-07-08T00:38:16.751Z,88.32
2023-07-08T00:40:52.804Z,89.36
2023-07-08T00:43:30.426Z,88.81
2023-07-08T00:46:14.685Z,88.96
2023-07-08T00:48:42.817Z,88.57
2023-07-08T00:51:13.386Z,89.62
2023-07-08T00:53:40.549Z,89.84
2023-07-08T00:56:14.368Z,89.47
2023-07-08T00:58:50.281Z,87.79
2023-07-08T01:01:18.328Z,88.14
2023-07-08T01:03:56.869Z,88.50
2023-07-08T01:06:32.274Z,89.08
2023-07-08T01:09:05.989Z,89.13
2023-07-08T01:11:35.153Z,89.67
2023-07-08T01:14:05.661Z,89.31
2023-07-08T01:16:34.988Z,89.81
2023-07-08T01:19:05.407Z,88.47
2023-07-08T01:21:32.594Z,88.23
2023-07-08T01:24:02.574Z,88.30
2023-07-08T01:26:31.361Z,88.90
2023-07-08T01:28:59.090Z,88.80
2023-07-08T01:31:26.340Z,89.04
2023-07-08T01:33:54.555Z,88.71
2023-07-08T01:36:26.114Z,89.99
2023-07-08T01:38:53.589Z,89.92
2023-07-08T01:41:20.701Z,90.92
2023-07-08T01:43:47.844Z,92.90
2023-07-08T01:46:23.019Z,93.48
2023-07-08T01:48:55.566Z,93.09
2023-07-08T01:51:23.566Z,92.87
2023-07-08T01:53:50.784Z,92.06
2023-07-08T01:56:18.298Z,93.04
2023-07-08T01:58:45.450Z,92.99
2023-07-08T02:01:12.540Z,93.43
2023-07-08T02:03:40.077Z,93.30
2023-07-08T02:06:09.207Z,93.26
2023-07-08T02:08:36.285Z,94.32
2023-07-08T02:11:03.583Z,94.04
2023-07-08T02:13:31.096Z,93.93
2023-07-08T02:15:58.186Z,93.90
2023-07-08T02:18:26.370Z,94.39
2023-07-08T02:20:53.730Z,94.15
2023-07-08T02:23:21.124Z,92.84
2023-07-08T02:25:55.704Z,93.01
2023-07-08T02:28:23.517Z,93.16
2023-07-08T02:30:50.564Z,95.25
2023-07-08T02:33:20.592Z,95.55
2023-07-08T02:35:47.652Z,97.20
2023-07-08T02:38:14.669Z,96.45
2023-07-08T02:40:41.872Z,96.95
2023-07-08T02:43:09.210Z,97.67
2023-07-08T02:45:37.441Z,97.18
2023-07-08T02:48:05.099Z,97.52
2023-07-08T02:50:32.969Z,96.75
2023-07-08T02:53:00.137Z,96.69
2023-07-08T02:55:27.170Z,96.92
2023-07-08T02:57:54.202Z,97.86
2023-07-08T03:00:21.360Z,96.43
2023-07-08T03:02:48.416Z,94.55
2023-07-08T03:05:15.622Z,95.68
2023-07-08T03:07:42.674Z,97.07
2023-07-08T03:10:10.385Z,97.98
2023-07-08T03:12:37.485Z,98.49
2023-07-08T03:15:05.963Z,98.07
2023-07-08T03:17:33.070Z,97.64
2023-07-08T03:20:00.163Z,97.31
2023-07-08T03:22:27.291Z,97.20
2023-07-08T03:24:54.429Z,97.23
2023-07-08T03:27:22.736Z,97.54
2023-07-08T03:29:51.561Z,96.78
2023-07-08T03:32:18.728Z,96.44
2023-07-08T03:34:46.071Z,97.10
2023-07-08T03:37:14.518Z,97.49
2023-07-08T03:39:41.608Z,97.72
2023-07-08T03:42:09.181Z,99.24
2023-07-08T03:44:36.284Z,98.49
2023-07-08T03:47:03.536Z,99.81
2023-07-08T03:49:30.803Z,99.41
2023-07-08T03:51:57.934Z,98.48
2023-07-08T03:54:26.416Z,98.28
2023-07-08T03:56:56.918Z,97.84
2023-07-08T03:59:26.511Z,98.29
2023-07-08T04:01:56.019Z,97.82
2023-07-08T04:04:25.493Z,99.13
2023-07-08T04:06:52.737Z,98.73
2023-07-08T04:09:19.872Z,98.14
2023-07-08T04:11:47.112Z,99.13
2023-07-08T04:14:14.550Z,98.72
2023-07-08T04:16:53.264Z,99.66
2023-07-08T04:19:20.632Z,99.62
2023-07-08T04:21:47.820Z,98.90
2023-07-08T04:24:17.434Z,98.60
2023-07-08T04:26:47.294Z,97.66
2023-07-08T04:29:17.205Z,96.38
2023-07-08T04:31:44.407Z,96.69
2023-07-08T04:34:11.474Z,95.79
2023-07-08T04:36:38.843Z,95.32
2023-07-08T04:39:08.209Z,95.92
2023-07-08T04:41:41.529Z,95.67
2023-07-08T04:44:09.445Z,96.81
2023-07-08T04:46:40.698Z,96.92
2023-07-08T04:49:10.605Z,95.74
2023-07-08T04:51:39.011Z,96.66
2023-07-08T04:54:06.458Z,96.46
2023-07-08T04:56:42.348Z,94.74
2023-07-08T04:59:11.195Z,95.38
2023-07-08T05:01:39.164Z,96.09
2023-07-08T05:04:07.652Z,94.79
2023-07-08T05:06:35.323Z,94.34
2023-07-08T05:09:03.999Z,94.98
2023-07-08T05:11:32.191Z,93.13
2023-07-08T05:14:00.021Z,93.15
2023-07-08T05:16:27.221Z,93.11
2023-07-08T05:18:54.417Z,91.53
2023-07-08T05:21:21.724Z,91.66
2023-07-08T05:23:52.492Z,90.01
2023-07-08T05:26:19.601Z,90.64
2023-07-08T05:28:47.007Z,89.06
2023-07-08T05:31:14.161Z,86.98
2023-07-08T05:33:41.224Z,85.88
2023-07-08T05:36:08.498Z,85.49
2023-07-08T05:38:35.620Z,86.79
2023-07-08T05:41:03.017Z,85.55
2023-07-08T05:43:30.409Z,85.98
2023-07-08T05:46:12.434Z,85.73
2023-07-08T05:48:40.631Z,83.82
2023-07-08T05:51:07.910Z,81.04
2023-07-08T05:53:34.952Z,80.79
2023-07-08T05:56:03.940Z,81.61
2023-07-08T05:58:31.051Z,81.08
2023-07-08T06:00:59.612Z,79.15
2023-07-08T06:03:27.283Z,77.82
2023-07-08T06:05:54.425Z,79.67
2023-07-08T06:08:21.531Z,77.40
2023-07-08T06:10:49.180Z,77.01
2023-07-08T06:13:16.313Z,76.93
2023-07-08T06:15:43.568Z,73.23
2023-07-08T06:18:10.720Z,71.64
2023-07-08T06:20:37.865Z,71.06
2023-07-08T06:23:04.986Z,70.13
2023-07-08T06:25:33.421Z,69.96
2023-07-08T06:28:00.637Z,69.35
2023-07-08T06:30:27.742Z,67.90
2023-07-08T06:32:55.124Z,66.97
2023-07-08T06:35:22.321Z,66.00
2023-07-08T06:37:49.487Z,64.86
2023-07-08T06:40:18.435Z,64.81
2023-07-08T06:42:45.535Z,63.50
2023-07-08T06:45:31.264Z,61.49
2023-07-08T06:47:58.417Z,60.08
2023-07-08T06:50:25.548Z,58.14
2023-07-08T06:52:52.629Z,56.38
2023-07-08T06:55:19.880Z,55.27
2023-07-08T06:57:46.903Z,55.09
2023-07-08T07:00:14.198Z,53.58
2023-07-08T07:02:41.368Z,52.94
2023-07-08T07:05:08.856Z,51.64
2023-07-08T07:07:36.082Z,51.63
2023-07-08T07:10:04.335Z,51.77
2023-07-08T07:12:31.509Z,51.33
2023-07-08T07:14:58.618Z,52.52
2023-07-08T07:17:26.994Z,51.02
2023-07-08T07:19:57.280Z,49.65
2023-07-08T07:22:24.805Z,49.83
2023-07-08T07:24:51.943Z,49.88
2023-07-08T07:27:19.268Z,47.84
2023-07-08T07:29:50.955Z,47.93
2023-07-08T07:32:19.763Z,47.51
2023-07-08T07:34:50.406Z,47.61
2023-07-08T07:37:19.526Z,46.61
2023-07-08T07:39:46.782Z,47.18
2023-07-08T07:42:17.398Z,47.17
2023-07-08T07:44:45.604Z,44.97
2023-07-08T07:47:13.408Z,45.85
2023-07-08T07:49:41.052Z,44.76
2023-07-08T07:52:08.515Z,45.90
2023-07-08T07:54:35.880Z,46.41
2023-07-08T07:57:03.067Z,45.72
2023-07-08T07:59:30.606Z,44.61
2023-07-08T08:01:57.822Z,45.96
2023-07-08T08:04:24.893Z,45.65
2023-07-08T08:06:51.982Z,45.25
2023-07-08T08:09:19.126Z,44.92
2023-07-08T08:11:46.188Z,44.59
2023-07-08T08:14:14.349Z,44.79
2023-07-08T08:16:41.497Z,43.42
2023-07-08T08:19:09.210Z,44.42
2023-07-08T08:21:36.746Z,43.15
2023-07-08T08:24:04.067Z,41.42
2023-07-08T08:26:31.276Z,41.19
2023-07-08T08:28:58.713Z,43.30
2023-07-08T08:31:25.888Z,42.64
2023-07-08T08:33:53.583Z,41.19
2023-07-08T08:36:21.860Z,42.71
2023-07-08T08:38:49.011Z,42.27
2023-07-08T08:41:19.991Z,41.78
2023-07-08T08:43:49.186Z,39.86
2023-07-08T08:46:19.266Z,42.33
2023-07-08T08:48:55.364Z,40.97
2023-07-08T08:51:24.545Z,40.99
2023-07-08T08:53:56.960Z,40.71
2023-07-08T08:56:26.274Z,39.83
2023-07-08T08:59:09.089Z,38.47
2023-07-08T09:01:38.100Z,39.25
2023-07-08T09:04:20.633Z,39.69
2023-07-08T09:06:48.028Z,38.05
2023-07-08T09:09:29.945Z,40.51
2023-07-08T09:12:12.798Z,39.89
2023-07-08T09:14:39.873Z,40.00
2023-07-08T09:17:31.616Z,39.15
2023-07-08T09:20:04.632Z,40.60
2023-07-08T09:22:44.845Z,41.01
2023-07-08T09:25:36.814Z,40.68
2023-07-08T09:28:04.097Z,40.82
2023-07-08T09:30:31.794Z,39.04
2023-07-08T09:33:03.050Z,39.89
2023-07-08T09:35:41.723Z,39.60
2023-07-08T09:38:10.460Z,39.80
2023-07-08T09:40:37.524Z,39.16
2023-07-08T09:43:50.251Z,40.02
2023-07-08T09:46:17.603Z,39.90
2023-07-08T09:48:44.728Z,40.41
2023-07-08T09:51:11.803Z,39.73
2023-07-08T09:53:38.965Z,39.93
2023-07-08T09:56:09.549Z,37.57
2023-07-08T09:58:43.157Z,37.70
2023-07-08T10:01:13.943Z,36.02
2023-07-08T10:03:43.037Z,36.45
2023-07-08T10:06:31.842Z,38.66
2023-07-08T10:09:04.006Z,37.82
2023-07-08T10:11:35.852Z,38.40
2023-07-08T10:14:13.791Z,36.36
2023-07-08T10:16:42.040Z,37.54
2023-07-08T10:19:18.298Z,37.73
2023-07-08T10:21:54.679Z,37.47
2023-07-08T10:24:39.864Z,36.87
2023-07-08T10:27:23.226Z,37.44
2023-07-08T10:30:13.295Z,36.46
2023-07-08T10:32:55.501Z,38.95
2023-07-08T10:35:33.312Z,36.41
2023-07-08T10:38:23.564Z,36.30
2023-07-08T10:40:58.221Z,35.43
2023-07-08T10:44:00.531Z,36.15
2023-07-08T10:46:39.613Z,36.12
2023-07-08T10:49:26.059Z,34.73
2023-07-08T10:52:20.788Z,36.04
2023-07-08T10:55:09.781Z,34.98
2023-07-08T10:57:39.984Z,34.83
2023-07-08T11:00:32.975Z,36.42
2023-07-08T11:03:41.669Z,33.34
2023-07-08T11:06:27.660Z,33.98
2023-07-08T11:09:00.660Z,33.75
2023-07-08T11:11:34.882Z,33.90
2023-07-08T11:14:17.181Z,33.57
2023-07-08T11:17:01.193Z,34.84
2023-07-08T11:19:37.473Z,35.51
2023-07-08T11:22:10.556Z,35.63
2023-07-08T11:24:49.272Z,34.44
2023-07-08T11:27:44.142Z,33.41
2023-07-08T11:30:17.590Z,34.14
2023-07-08T11:32:48.287Z,34.01
2023-07-08T11:35:24.341Z,34.88
2023-07-08T11:37:58.356Z,34.03
2023-07-08T11:40:25.752Z,33.64
2023-07-08T11:43:01.095Z,34.33
2023-07-08T11:45:34.395Z,33.59
2023-07-08T11:48:06.457Z,34.44
2023-07-08T11:50:37.862Z,34.00
2023-07-08T11:53:09.470Z,33.72
2023-07-08T11:55:43.875Z,34.81
2023-07-08T11:58:29.498Z,34.19
2023-07-08T12:01:01.187Z,34.83
2023-07-08T12:03:35.621Z,35.31
2023-07-08T12:06:07.348Z,33.34
2023-07-08T12:08:39.178Z,34.40
2023-07-08T12:11:13.626Z,33.34
2023-07-08T12:13:40.847Z,34.71
2023-07-08T12:16:17.014Z,31.73
2023-07-08T12:18:46.878Z,32.95
2023-07-08T12:21:14.566Z,32.12
2023-07-08T12:23:48.627Z,32.71
2023-07-08T12:26:17.077Z,32.35
2023-07-08T12:28:44.554Z,32.23
2023-07-08T12:31:17.685Z,33.52
2023-07-08T12:33:45.356Z,32.94
2023-07-08T12:36:26.762Z,31.18
2023-07-08T12:38:56.702Z,32.78
2023-07-08T12:41:37.293Z,32.02
2023-07-08T12:44:16.292Z,31.40
2023-07-08T12:46:43.369Z,30.69
2023-07-08T12:49:10.618Z,30.81
2023-07-08T12:51:37.714Z,31.46
2023-07-08T12:54:04.874Z,31.12
2023-07-08T12:56:32.115Z,29.36
2023-07-08T12:59:00.624Z,32.11
2023-07-08T13:01:30.990Z,32.23
2023-07-08T13:04:04.626Z,32.27
2023-07-08T13:06:34.994Z,32.88
2023-07-08T13:09:24.979Z,30.86
2023-07-08T13:11:54.658Z,29.98
2023-07-08T13:14:23.433Z,33.06
2023-07-08T13:16:50.786Z,33.76
2023-07-08T13:19:20.502Z,31.67
2023-07-08T13:21:51.716Z,30.83
2023-07-08T13:24:20.461Z,31.51
2023-07-08T13:26:49.890Z,29.92
2023-07-08T13:29:19.610Z,32.11
2023-07-08T13:31:53.865Z,31.27
2023-07-08T13:34:33.409Z,33.28
2023-07-08T13:37:00.720Z,32.57
2023-07-08T13:39:36.005Z,31.70
2023-07-08T13:42:28.121Z,30.89
2023-07-08T13:44:55.262Z,30.60
2023-07-08T13:47:24.072Z,31.49
2023-07-08T13:49:58.238Z,30.90
2023-07-08T13:52:25.318Z,32.23
2023-07-08T13:54:55.579Z,29.79
2023-07-08T13:57:29.269Z,30.53
2023-07-08T13:59:56.378Z,30.82
2023-07-08T14:02:27.428Z,32.49
2023-07-08T14:04:56.046Z,30.79
2023-07-08T14:07:26.264Z,31.26
2023-07-08T14:09:53.693Z,31.88
2023-07-08T14:12:24.352Z,31.75
2023-07-08T14:14:51.720Z,31.53
2023-07-08T14:17:28.882Z,31.90
2023-07-08T14:19:56.011Z,31.33
2023-07-08T14:22:26.616Z,31.45
2023-07-08T14:24:55.031Z,31.04
2023-07-08T14:27:22.625Z,31.78
2023-07-08T14:29:51.874Z,31.82
2023-07-08T14:32:31.236Z,31.02
2023-07-08T14:35:09.921Z,31.49
2023-07-08T14:37:37.019Z,31.77
2023-07-08T14:40:17.478Z,31.69
2023-07-08T14:42:44.520Z,31.94
2023-07-08T14:45:11.985Z,33.22
2023-07-08T14:47:39.056Z,33.03
2023-07-08T14:50:15.068Z,31.89
2023-07-08T14:52:42.209Z,31.90
2023-07-08T14:55:10.987Z,33.53
2023-07-08T14:57:57.375Z,31.71
2023-07-08T15:00:24.872Z,32.32
2023-07-08T15:02:53.115Z,30.52
2023-07-08T15:05:25.958Z,30.61
2023-07-08T15:07:54.984Z,31.15
2023-07-08T15:10:24.840Z,30.56
2023-07-08T15:12:52.115Z,31.15
2023-07-08T15:15:27.550Z,31.77
2023-07-08T15:17:54.997Z,30.74
2023-07-08T15:20:23.354Z,28.76
2023-07-08T15:22:51.140Z,27.87
2023-07-08T15:25:19.294Z,26.39
2023-07-08T15:27:53.433Z,25.97
2023-07-08T15:30:23.657Z,28.00
2023-07-08T15:32:52.318Z,25.76
2023-07-08T15:35:31.349Z,25.49
2023-07-08T15:38:00.212Z,26.43
2023-07-08T15:40:30.186Z,27.04
2023-07-08T15:43:00.649Z,27.08
2023-07-08T15:45:31.473Z,24.87
2023-07-08T15:47:58.571Z,25.64
2023-07-08T15:50:27.891Z,24.81
2023-07-08T15:52:55.917Z,26.04
2023-07-08T15:55:34.807Z,25.00
2023-07-08T15:58:15.257Z,24.24
2023-07-08T16:00:42.738Z,24.25
2023-07-08T16:03:22.911Z,26.11
2023-07-08T16:05:51.300Z,26.24
2023-07-08T16:08:18.853Z,26.92
2023-07-08T16:10:51.018Z,27.89
2023-07-08T16:13:22.809Z,28.38
2023-07-08T16:15:50.388Z,27.47
2023-07-08T16:18:17.809Z,27.24
2023-07-08T16:20:46.090Z,26.08
2023-07-08T16:23:13.235Z,24.38
2023-07-08T16:25:44.632Z,26.88
2023-07-08T16:28:41.243Z,26.64
2023-07-08T16:31:17.494Z,26.95
2023-07-08T16:33:45.827Z,28.28
2023-07-08T16:36:15.044Z,27.55
2023-07-08T16:38:42.545Z,29.01
2023-07-08T16:41:14.696Z,27.53
2023-07-08T16:43:41.900Z,26.60
2023-07-08T16:46:13.369Z,27.44
2023-07-08T16:48:41.183Z,28.07
2023-07-08T16:51:16.614Z,26.54
2023-07-08T16:53:44.917Z,24.45
2023-07-08T16:56:13.728Z,22.37
2023-07-08T16:58:40.917Z,22.53
2023-07-08T17:01:20.917Z,21.27
2023-07-08T17:03:50.017Z,21.11
2023-07-08T17:06:17.794Z,19.59
2023-07-08T17:08:44.887Z,21.04
2023-07-08T17:11:12.394Z,20.39
2023-07-08T17:13:39.690Z,20.30
2023-07-08T17:16:13.279Z,20.35
2023-07-08T17:18:40.690Z,20.08
2023-07-08T17:21:14.712Z,20.40
2023-07-08T17:23:42.149Z,20.45
2023-07-08T17:26:09.785Z,21.69
2023-07-08T17:28:37.101Z,24.59
2023-07-08T17:31:05.732Z,25.14
2023-07-08T17:33:33.162Z,26.22
2023-07-08T17:36:01.207Z,28.31
2023-07-08T17:38:47.956Z,31.38
2023-07-08T17:41:18.999Z,32.27
2023-07-08T17:43:47.726Z,33.18
2023-07-08T17:46:20.556Z,34.75
2023-07-08T17:48:49.016Z,36.25
2023-07-08T17:51:17.942Z,36.48
2023-07-08T17:53:45.420Z,37.23
2023-07-08T17:56:20.120Z,38.08
2023-07-08T17:58:50.321Z,38.84
2023-07-08T18:01:17.798Z,39.44
2023-07-08T18:03:45.027Z,40.13
2023-07-08T18:06:12.146Z,40.19
2023-07-08T18:08:39.315Z,40.43
2023-07-08T18:11:12.853Z,41.01
2023-07-08T18:13:40.496Z,42.00
2023-07-08T18:16:15.761Z,42.75
2023-07-08T18:18:43.367Z,43.96
2023-07-08T18:21:16.303Z,44.20
2023-07-08T18:23:44.034Z,45.66
2023-07-08T18:26:21.465Z,45.28
2023-07-08T18:28:49.102Z,45.88
2023-07-08T18:31:21.098Z,45.43
2023-07-08T18:33:51.796Z,45.11
2023-07-08T18:36:18.915Z,47.44
2023-07-08T18:38:46.068Z,48.10
2023-07-08T18:41:20.615Z,46.71
2023-07-08T18:43:47.995Z,47.63
2023-07-08T18:46:16.209Z,48.54
2023-07-08T18:48:43.996Z,48.00
2023-07-08T18:51:38.581Z,47.71
2023-07-08T18:54:18.935Z,48.12
2023-07-08T18:56:55.116Z,48.20
2023-07-08T18:59:24.860Z,47.71
2023-07-08T19:01:59.373Z,48.74
2023-07-08T19:04:29.876Z,48.71
2023-07-08T19:06:58.607Z,49.28
2023-07-08T19:09:26.135Z,51.89
2023-07-08T19:11:53.472Z,52.59
2023-07-08T19:14:20.677Z,53.23
2023-07-08T19:16:47.923Z,52.11
2023-07-08T19:19:15.099Z,51.61
2023-07-08T19:21:42.676Z,54.70
2023-07-08T19:24:21.223Z,53.27
2023-07-08T19:26:55.583Z,52.01
2023-07-08T19:29:22.671Z,48.34
2023-07-08T19:31:50.148Z,51.23
2023-07-08T19:34:17.956Z,57.99
2023-07-08T19:36:45.352Z,57.79
2023-07-08T19:39:12.591Z,59.08
2023-07-08T19:41:41.738Z,59.85
2023-07-08T19:44:13.329Z,59.26
2023-07-08T19:46:41.678Z,61.36
2023-07-08T19:49:10.697Z,60.67
2023-07-08T19:51:37.817Z,62.26
2023-07-08T19:54:05.270Z,59.53
2023-07-08T19:56:32.664Z,61.60
2023-07-08T19:59:01.663Z,62.35
2023-07-08T20:01:28.693Z,62.46
2023-07-08T20:03:55.928Z,62.93
2023-07-08T20:06:27.349Z,64.53
2023-07-08T20:08:56.067Z,65.56
2023-07-08T20:11:23.639Z,65.79
2023-07-08T20:13:50.827Z,64.27
2023-07-08T20:16:26.012Z,63.41
2023-07-08T20:18:53.413Z,65.90
2023-07-08T20:21:20.867Z,65.40
2023-07-08T20:23:48.003Z,64.74
2023-07-08T20:26:21.015Z,63.97
2023-07-08T20:28:48.077Z,65.09
2023-07-08T20:31:15.175Z,68.49
2023-07-08T20:33:42.222Z,69.67
2023-07-08T20:36:21.121Z,68.09
2023-07-08T20:38:48.270Z,69.09
2023-07-08T20:41:16.532Z,70.43
2023-07-08T20:43:43.759Z,70.50
2023-07-08T20:46:21.902Z,69.96
2023-07-08T20:48:51.445Z,70.65
2023-07-08T20:51:18.541Z,71.28
2023-07-08T20:53:45.628Z,70.94
2023-07-08T20:56:18.063Z,71.75
2023-07-08T20:58:45.372Z,72.14
2023-07-08T21:01:12.383Z,71.72
2023-07-08T21:03:42.559Z,72.50
2023-07-08T21:06:15.938Z,72.67
2023-07-08T21:08:42.989Z,74.68
2023-07-08T21:11:11.821Z,76.49
2023-07-08T21:13:39.272Z,77.92
2023-07-08T21:16:13.552Z,78.26
2023-07-08T21:18:40.808Z,79.60
2023-07-08T21:21:09.551Z,80.39
2023-07-08T21:23:37.043Z,80.80
2023-07-08T21:26:16.121Z,81.15
2023-07-08T21:28:46.617Z,81.06
2023-07-08T21:31:14.751Z,79.68
2023-07-08T21:33:42.252Z,81.14
2023-07-08T21:36:27.610Z,80.86
2023-07-08T21:38:58.829Z,80.69
2023-07-08T21:41:25.894Z,81.26
2023-07-08T21:43:53.063Z,81.74
2023-07-08T21:46:22.030Z,82.92
2023-07-08T21:48:49.929Z,82.75
2023-07-08T21:51:28.630Z,83.41
2023-07-08T21:53:56.474Z,83.55
2023-07-08T21:56:23.899Z,84.63
2023-07-08T21:58:51.028Z,84.10
2023-07-08T22:01:20.663Z,84.37
2023-07-08T22:03:48.610Z,84.97
2023-07-08T22:06:20.736Z,83.50
2023-07-08T22:08:47.949Z,86.11
2023-07-08T22:11:36.459Z,85.85
2023-07-08T22:14:04.683Z,85.35
2023-07-08T22:16:33.543Z,85.39
2023-07-08T22:19:02.980Z,86.32
2023-07-08T22:21:33.760Z,87.45
2023-07-08T22:24:06.217Z,87.73
2023-07-08T22:26:36.066Z,88.04
2023-07-08T22:29:04.160Z,88.42
2023-07-08T22:31:34.802Z,89.92
2023-07-08T22:34:03.784Z,89.96
2023-07-08T22:36:30.874Z,90.47
2023-07-08T22:39:00.775Z,89.43
2023-07-08T22:41:29.148Z,89.81
2023-07-08T22:43:56.341Z,90.27
2023-07-08T22:46:23.489Z,91.17
2023-07-08T22:48:58.452Z,92.87
2023-07-08T22:51:27.723Z,92.51
2023-07-08T22:53:57.302Z,94.27
2023-07-08T22:56:24.412Z,92.99
2023-07-08T22:58:51.444Z,94.20
2023-07-08T23:01:18.456Z,94.13
2023-07-08T23:03:45.535Z,95.58
2023-07-08T23:06:16.570Z,96.40
2023-07-08T23:08:43.729Z,95.07
2023-07-08T23:11:14.036Z,96.32
2023-07-08T23:13:43.964Z,96.01
2023-07-08T23:16:16.982Z,95.44
2023-07-08T23:18:47.782Z,96.55
2023-07-08T23:21:17.163Z,96.90
2023-07-08T23:23:44.199Z,98.46
2023-07-08T23:26:14.472Z,97.19
2023-07-08T23:28:41.993Z,96.24
2023-07-08T23:31:11.371Z,96.40
2023-07-08T23:33:38.438Z,96.43
2023-07-08T23:36:22.388Z,98.08
2023-07-08T23:38:50.344Z,97.63
2023-07-08T23:41:18.956Z,97.45
2023-07-08T23:43:46.923Z,97.86
2023-07-08T23:46:23.163Z,97.72
2023-07-08T23:48:51.563Z,96.94
2023-07-08T23:51:18.765Z,97.47
2023-07-08T23:53:45.896Z,97.31
2023-07-08T23:56:15.152Z,98.11
2023-07-08T23:58:43.753Z,97.55
